sensor_id;sensor_type;location;lat;lon;timestamp;pressure;altitude;pressure_sealevel;temperature;humidity
5284;BME280;15377;48.540;9.268;2023-01-08T00:01:27;96947.16;;;0.92;100.00
5284;BME280;15377;48.540;9.268;2023-01-08T00:03:52;96942.84;;;0.94;100.00
5284;BME280;15377;48.540;9.268;2023-01-08T00:06:18;96947.09;;;0.95;100.00
5284;BME280;15377;48.540;9.268;2023-01-08T00:08:45;96939.44;;;0.90;100.00
5284;BME280;15377;48.540;9.268;2023-01-08T00:11:11;96919.81;;;0.86;100.00
5284;BME280;15377;48.540;9.268;2023-01-08T00:13:37;96931.00;;;1.04;100.00
5284;BME280;15377;48.540;9.268;2023-01-08T00:16:04;96922.22;;;1.00;100.00
5284;BME280;15377;48.540;9.268;2023-01-08T00:18:30;96918.56;;;1.07;100.00
5284;BME280;15377;48.540;9.268;2023-01-08T00:20:56;96906.88;;;1.10;100.00
5284;BME280;15377;48.540;9.268;2023-01-08T00:23:22;96899.03;;;1.15;100.00
5284;BME280;15377;48.540;9.268;2023-01-08T00:25:47;96909.03;;;1.18;100.00
5284;BME280;15377;48.540;9.268;2023-01-08T00:28:13;96913.50;;;1.25;100.00
5284;BME280;15377;48.540;9.268;2023-01-08T00:30:39;96887.53;;;1.27;100.00
5284;BME280;15377;48.540;9.268;2023-01-08T00:33:05;96891.50;;;1.39;100.00
5284;BME280;15377;48.540;9.268;2023-01-08T00:35:30;96895.31;;;1.41;100.00
5284;BME280;15377;48.540;9.268;2023-01-08T00:37:56;96887.34;;;1.34;100.00
5284;BME280;15377;48.540;9.268;2023-01-08T00:40:21;96877.09;;;1.26;100.00
5284;BME280;15377;48.540;9.268;2023-01-08T00:42:47;96857.38;;;1.09;100.00
5284;BME280;15377;48.540;9.268;2023-01-08T00:45:12;96862.47;;;1.23;100.00
5284;BME280;15377;48.540;9.268;2023-01-08T00:47:38;96867.09;;;1.23;100.00
5284;BME280;15377;48.540;9.268;2023-01-08T00:50:03;96836.19;;;1.20;100.00
5284;BME280;15377;48.540;9.268;2023-01-08T00:52:29;96858.56;;;1.40;100.00
5284;BME280;15377;48.540;9.268;2023-01-08T00:54:54;96857.63;;;1.31;100.00
5284;BME280;15377;48.540;9.268;2023-01-08T00:57:19;96861.19;;;1.44;100.00
5284;BME280;15377;48.540;9.268;2023-01-08T00:59:45;96856.88;;;1.30;100.00
5284;BME280;15377;48.540;9.268;2023-01-08T01:02:10;96847.56;;;1.31;100.00
5284;BME280;15377;48.540;9.268;2023-01-08T01:04:35;96830.44;;;1.18;100.00
5284;BME280;15377;48.540;9.268;2023-01-08T01:07:01;96857.78;;;1.56;100.00
5284;BME280;15377;48.540;9.268;2023-01-08T01:09:27;96846.66;;;1.66;100.00
5284;BME280;15377;48.540;9.268;2023-01-08T01:11:52;96833.03;;;1.54;100.00
5284;BME280;15377;48.540;9.268;2023-01-08T01:14:18;96845.66;;;1.44;100.00
5284;BME280;15377;48.540;9.268;2023-01-08T01:16:43;96850.44;;;1.40;100.00
5284;BME280;15377;48.540;9.268;2023-01-08T01:19:09;96827.38;;;1.48;100.00
5284;BME280;15377;48.540;9.268;2023-01-08T01:21:34;96835.97;;;1.75;100.00
5284;BME280;15377;48.540;9.268;2023-01-08T01:24:04;96843.72;;;1.89;100.00
5284;BME280;15377;48.540;9.268;2023-01-08T01:26:31;96837.44;;;1.92;100.00
5284;BME280;15377;48.540;9.268;2023-01-08T01:28:57;96839.16;;;1.86;100.00
5284;BME280;15377;48.540;9.268;2023-01-08T01:31:24;96848.63;;;1.94;100.00
5284;BME280;15377;48.540;9.268;2023-01-08T01:33:50;96826.13;;;1.81;100.00
5284;BME280;15377;48.540;9.268;2023-01-08T01:36:17;96848.09;;;1.99;100.00
5284;BME280;15377;48.540;9.268;2023-01-08T01:38:44;96866.28;;;1.86;100.00
5284;BME280;15377;48.540;9.268;2023-01-08T01:41:18;96858.50;;;1.88;100.00
5284;BME280;15377;48.540;9.268;2023-01-08T01:43:43;96863.75;;;1.79;100.00
5284;BME280;15377;48.540;9.268;2023-01-08T01:48:41;96853.41;;;1.74;100.00
5284;BME280;15377;48.540;9.268;2023-01-08T01:51:07;96870.38;;;1.78;100.00
5284;BME280;15377;48.540;9.268;2023-01-08T01:53:34;96863.25;;;1.68;100.00
5284;BME280;15377;48.540;9.268;2023-01-08T01:56:02;96845.00;;;1.56;100.00
5284;BME280;15377;48.540;9.268;2023-01-08T01:58:29;96865.28;;;1.80;100.00
5284;BME280;15377;48.540;9.268;2023-01-08T02:00:57;96848.53;;;1.69;100.00
5284;BME280;15377;48.540;9.268;2023-01-08T02:03:27;96850.84;;;1.83;100.00
5284;BME280;15377;48.540;9.268;2023-01-08T02:11:12;96854.59;;;1.89;100.00
5284;BME280;15377;48.540;9.268;2023-01-08T02:13:40;96846.63;;;1.82;100.00
5284;BME280;15377;48.540;9.268;2023-01-08T02:16:26;96839.06;;;1.90;100.00
5284;BME280;15377;48.540;9.268;2023-01-08T02:19:23;96831.78;;;1.87;100.00
5284;BME280;15377;48.540;9.268;2023-01-08T02:22:05;96840.72;;;2.00;100.00
5284;BME280;15377;48.540;9.268;2023-01-08T02:25:01;96833.34;;;2.00;100.00
5284;BME280;15377;48.540;9.268;2023-01-08T02:27:32;96818.06;;;2.06;100.00
5284;BME280;15377;48.540;9.268;2023-01-08T02:30:00;96812.75;;;2.15;100.00
5284;BME280;15377;48.540;9.268;2023-01-08T02:32:32;96808.75;;;2.20;100.00
5284;BME280;15377;48.540;9.268;2023-01-08T02:34:58;96757.03;;;1.86;100.00
5284;BME280;15377;48.540;9.268;2023-01-08T02:37:23;96766.50;;;2.06;100.00
5284;BME280;15377;48.540;9.268;2023-01-08T02:47:44;96757.88;;;2.36;100.00
5284;BME280;15377;48.540;9.268;2023-01-08T02:53:17;96745.59;;;2.32;100.00
5284;BME280;15377;48.540;9.268;2023-01-08T02:55:48;96749.94;;;2.17;100.00
5284;BME280;15377;48.540;9.268;2023-01-08T02:58:15;96743.19;;;2.21;100.00
5284;BME280;15377;48.540;9.268;2023-01-08T03:00:41;96735.72;;;2.25;100.00
5284;BME280;15377;48.540;9.268;2023-01-08T03:03:28;96733.00;;;2.25;100.00
5284;BME280;15377;48.540;9.268;2023-01-08T03:06:02;96738.44;;;2.38;100.00
5284;BME280;15377;48.540;9.268;2023-01-08T03:08:28;96729.41;;;2.53;100.00
5284;BME280;15377;48.540;9.268;2023-01-08T03:11:04;96735.94;;;2.68;100.00
5284;BME280;15377;48.540;9.268;2023-01-08T03:13:40;96720.31;;;2.72;100.00
5284;BME280;15377;48.540;9.268;2023-01-08T03:16:11;96715.72;;;2.69;100.00
5284;BME280;15377;48.540;9.268;2023-01-08T03:18:43;96727.66;;;2.84;100.00
5284;BME280;15377;48.540;9.268;2023-01-08T03:21:10;96726.03;;;2.87;100.00
5284;BME280;15377;48.540;9.268;2023-01-08T03:23:37;96731.97;;;2.94;100.00
5284;BME280;15377;48.540;9.268;2023-01-08T03:26:05;96727.09;;;3.02;100.00
5284;BME280;15377;48.540;9.268;2023-01-08T03:28:38;96723.16;;;3.03;100.00
5284;BME280;15377;48.540;9.268;2023-01-08T03:31:06;96724.34;;;3.14;100.00
5284;BME280;15377;48.540;9.268;2023-01-08T03:33:33;96707.91;;;3.18;100.00
5284;BME280;15377;48.540;9.268;2023-01-08T03:36:02;96697.75;;;2.97;100.00
5284;BME280;15377;48.540;9.268;2023-01-08T03:38:36;96710.91;;;2.98;100.00
5284;BME280;15377;48.540;9.268;2023-01-08T03:41:07;96709.81;;;2.96;100.00
5284;BME280;15377;48.540;9.268;2023-01-08T03:43:34;96709.91;;;3.05;100.00
5284;BME280;15377;48.540;9.268;2023-01-08T03:46:02;96711.28;;;3.09;100.00
5284;BME280;15377;48.540;9.268;2023-01-08T03:48:32;96710.47;;;3.00;100.00
5284;BME280;15377;48.540;9.268;2023-01-08T03:50:58;96711.22;;;3.00;100.00
5284;BME280;15377;48.540;9.268;2023-01-08T03:53:24;96696.22;;;2.96;100.00
5284;BME280;15377;48.540;9.268;2023-01-08T03:55:49;96703.25;;;3.06;100.00
5284;BME280;15377;48.540;9.268;2023-01-08T03:58:14;96700.44;;;3.09;100.00
5284;BME280;15377;48.540;9.268;2023-01-08T04:00:40;96706.50;;;3.13;100.00
5284;BME280;15377;48.540;9.268;2023-01-08T04:03:05;96694.69;;;3.07;100.00
5284;BME280;15377;48.540;9.268;2023-01-08T04:05:31;96691.78;;;2.89;100.00
5284;BME280;15377;48.540;9.268;2023-01-08T04:07:57;96696.41;;;2.67;100.00
5284;BME280;15377;48.540;9.268;2023-01-08T04:10:23;96694.13;;;2.53;100.00
5284;BME280;15377;48.540;9.268;2023-01-08T04:12:49;96691.63;;;2.46;100.00
5284;BME280;15377;48.540;9.268;2023-01-08T04:15:14;96693.13;;;2.47;100.00
5284;BME280;15377;48.540;9.268;2023-01-08T04:17:40;96688.38;;;2.51;100.00
5284;BME280;15377;48.540;9.268;2023-01-08T04:20:06;96694.78;;;2.57;100.00
5284;BME280;15377;48.540;9.268;2023-01-08T04:22:31;96696.63;;;2.60;100.00
5284;BME280;15377;48.540;9.268;2023-01-08T04:24:57;96698.44;;;2.63;100.00
5284;BME280;15377;48.540;9.268;2023-01-08T04:27:22;96691.84;;;2.64;100.00
5284;BME280;15377;48.540;9.268;2023-01-08T04:29:47;96712.00;;;2.88;100.00
5284;BME280;15377;48.540;9.268;2023-01-08T04:32:13;96714.81;;;2.97;100.00
5284;BME280;15377;48.540;9.268;2023-01-08T04:34:38;96696.88;;;2.87;100.00
5284;BME280;15377;48.540;9.268;2023-01-08T04:37:03;96710.25;;;2.94;100.00
5284;BME280;15377;48.540;9.268;2023-01-08T04:39:29;96714.34;;;3.11;100.00
5284;BME280;15377;48.540;9.268;2023-01-08T04:41:54;96728.47;;;3.19;100.00
5284;BME280;15377;48.540;9.268;2023-01-08T04:44:20;96730.16;;;3.25;100.00
5284;BME280;15377;48.540;9.268;2023-01-08T04:46:45;96731.78;;;3.35;100.00
5284;BME280;15377;48.540;9.268;2023-01-08T04:49:11;96742.75;;;3.44;100.00
5284;BME280;15377;48.540;9.268;2023-01-08T04:51:37;96739.91;;;3.47;100.00
5284;BME280;15377;48.540;9.268;2023-01-08T04:54:02;96753.13;;;3.58;100.00
5284;BME280;15377;48.540;9.268;2023-01-08T04:56:28;96746.38;;;3.62;100.00
5284;BME280;15377;48.540;9.268;2023-01-08T04:58:53;96765.78;;;3.73;100.00
5284;BME280;15377;48.540;9.268;2023-01-08T05:01:21;96768.09;;;3.75;100.00
5284;BME280;15377;48.540;9.268;2023-01-08T05:03:47;96770.34;;;3.76;100.00
5284;BME280;15377;48.540;9.268;2023-01-08T05:06:12;96758.72;;;3.76;100.00
5284;BME280;15377;48.540;9.268;2023-01-08T05:08:38;96753.28;;;3.76;100.00
5284;BME280;15377;48.540;9.268;2023-01-08T05:11:03;96740.22;;;3.71;100.00
5284;BME280;15377;48.540;9.268;2023-01-08T05:13:29;96766.28;;;3.81;100.00
5284;BME280;15377;48.540;9.268;2023-01-08T05:15:58;96757.25;;;3.84;100.00
5284;BME280;15377;48.540;9.268;2023-01-08T05:18:24;96742.00;;;3.86;100.00
5284;BME280;15377;48.540;9.268;2023-01-08T05:20:50;96744.91;;;3.92;100.00
5284;BME280;15377;48.540;9.268;2023-01-08T05:23:15;96742.63;;;3.90;100.00
5284;BME280;15377;48.540;9.268;2023-01-08T05:25:40;96731.56;;;3.85;100.00
5284;BME280;15377;48.540;9.268;2023-01-08T05:28:05;96729.41;;;3.80;100.00
5284;BME280;15377;48.540;9.268;2023-01-08T05:30:31;96745.53;;;3.96;100.00
5284;BME280;15377;48.540;9.268;2023-01-08T05:32:56;96739.84;;;4.03;100.00
5284;BME280;15377;48.540;9.268;2023-01-08T05:35:21;96733.53;;;4.06;100.00
5284;BME280;15377;48.540;9.268;2023-01-08T05:37:47;96738.97;;;4.06;100.00
5284;BME280;15377;48.540;9.268;2023-01-08T05:40:12;96728.47;;;3.95;100.00
5284;BME280;15377;48.540;9.268;2023-01-08T05:42:37;96734.41;;;4.03;100.00
5284;BME280;15377;48.540;9.268;2023-01-08T05:45:04;96727.44;;;4.02;100.00
5284;BME280;15377;48.540;9.268;2023-01-08T05:47:31;96696.19;;;3.85;100.00
5284;BME280;15377;48.540;9.268;2023-01-08T05:49:57;96725.03;;;4.04;100.00
5284;BME280;15377;48.540;9.268;2023-01-08T05:52:22;96702.63;;;4.00;100.00
5284;BME280;15377;48.540;9.268;2023-01-08T05:54:47;96724.19;;;4.16;100.00
5284;BME280;15377;48.540;9.268;2023-01-08T05:57:13;96735.66;;;4.11;100.00
5284;BME280;15377;48.540;9.268;2023-01-08T05:59:38;96722.94;;;4.08;100.00
5284;BME280;15377;48.540;9.268;2023-01-08T06:02:03;96728.56;;;4.13;100.00
5284;BME280;15377;48.540;9.268;2023-01-08T06:04:29;96719.97;;;4.15;100.00
5284;BME280;15377;48.540;9.268;2023-01-08T06:06:54;96719.69;;;4.22;100.00
5284;BME280;15377;48.540;9.268;2023-01-08T06:09:19;96720.31;;;4.26;100.00
5284;BME280;15377;48.540;9.268;2023-01-08T06:11:45;96720.94;;;4.30;100.00
5284;BME280;15377;48.540;9.268;2023-01-08T06:14:10;96714.03;;;4.38;100.00
5284;BME280;15377;48.540;9.268;2023-01-08T06:16:35;96704.50;;;4.42;100.00
5284;BME280;15377;48.540;9.268;2023-01-08T06:19:01;96721.03;;;4.48;100.00
5284;BME280;15377;48.540;9.268;2023-01-08T06:21:26;96735.31;;;4.61;100.00
5284;BME280;15377;48.540;9.268;2023-01-08T06:23:51;96709.59;;;4.62;100.00
5284;BME280;15377;48.540;9.268;2023-01-08T06:26:17;96710.78;;;4.61;100.00
5284;BME280;15377;48.540;9.268;2023-01-08T06:28:42;96722.00;;;4.63;100.00
5284;BME280;15377;48.540;9.268;2023-01-08T06:31:07;96712.59;;;4.64;100.00
5284;BME280;15377;48.540;9.268;2023-01-08T06:33:33;96709.84;;;4.55;100.00
5284;BME280;15377;48.540;9.268;2023-01-08T06:35:59;96720.13;;;4.51;100.00
5284;BME280;15377;48.540;9.268;2023-01-08T06:38:26;96724.06;;;4.50;100.00
5284;BME280;15377;48.540;9.268;2023-01-08T06:40:51;96732.25;;;4.59;100.00
5284;BME280;15377;48.540;9.268;2023-01-08T06:43:17;96724.09;;;4.68;100.00
5284;BME280;15377;48.540;9.268;2023-01-08T06:45:42;96727.34;;;4.75;100.00
5284;BME280;15377;48.540;9.268;2023-01-08T06:48:08;96709.50;;;4.83;100.00
5284;BME280;15377;48.540;9.268;2023-01-08T06:50:34;96705.28;;;5.09;100.00
5284;BME280;15377;48.540;9.268;2023-01-08T06:52:59;96700.03;;;5.24;100.00
5284;BME280;15377;48.540;9.268;2023-01-08T06:55:25;96692.59;;;5.33;100.00
5284;BME280;15377;48.540;9.268;2023-01-08T06:57:55;96688.66;;;5.34;100.00
5284;BME280;15377;48.540;9.268;2023-01-08T07:00:20;96682.59;;;5.30;100.00
5284;BME280;15377;48.540;9.268;2023-01-08T07:02:48;96699.41;;;5.38;100.00
5284;BME280;15377;48.540;9.268;2023-01-08T07:05:14;96707.59;;;5.29;100.00
5284;BME280;15377;48.540;9.268;2023-01-08T07:07:39;96703.94;;;5.23;100.00
5284;BME280;15377;48.540;9.268;2023-01-08T07:10:04;96701.53;;;5.25;100.00
5284;BME280;15377;48.540;9.268;2023-01-08T07:12:30;96698.81;;;5.34;100.00
5284;BME280;15377;48.540;9.268;2023-01-08T07:14:55;96698.81;;;5.34;100.00
5284;BME280;15377;48.540;9.268;2023-01-08T07:17:21;96699.88;;;5.36;100.00
5284;BME280;15377;48.540;9.268;2023-01-08T07:19:46;96692.75;;;5.48;100.00
5284;BME280;15377;48.540;9.268;2023-01-08T07:22:11;96685.00;;;5.55;100.00
5284;BME280;15377;48.540;9.268;2023-01-08T07:24:36;96700.00;;;5.69;100.00
5284;BME280;15377;48.540;9.268;2023-01-08T07:27:02;96691.81;;;5.69;100.00
5284;BME280;15377;48.540;9.268;2023-01-08T07:29:27;96704.72;;;5.77;100.00
5284;BME280;15377;48.540;9.268;2023-01-08T07:31:53;96710.06;;;5.81;100.00
5284;BME280;15377;48.540;9.268;2023-01-08T07:34:18;96707.00;;;5.88;100.00
5284;BME280;15377;48.540;9.268;2023-01-08T07:36:43;96712.47;;;5.97;100.00
5284;BME280;15377;48.540;9.268;2023-01-08T07:39:09;96698.50;;;5.95;100.00
5284;BME280;15377;48.540;9.268;2023-01-08T07:41:34;96696.81;;;5.97;100.00
5284;BME280;15377;48.540;9.268;2023-01-08T07:43:59;96696.97;;;6.03;100.00
5284;BME280;15377;48.540;9.268;2023-01-08T07:46:25;96688.19;;;5.99;100.00
5284;BME280;15377;48.540;9.268;2023-01-08T07:48:50;96666.81;;;5.88;100.00
5284;BME280;15377;48.540;9.268;2023-01-08T07:51:16;96687.56;;;6.04;100.00
5284;BME280;15377;48.540;9.268;2023-01-08T07:53:41;96684.84;;;6.04;100.00
5284;BME280;15377;48.540;9.268;2023-01-08T07:56:07;96689.38;;;6.07;100.00
5284;BME280;15377;48.540;9.268;2023-01-08T07:58:34;96672.72;;;5.96;100.00
5284;BME280;15377;48.540;9.268;2023-01-08T08:01:00;96692.41;;;6.09;100.00
5284;BME280;15377;48.540;9.268;2023-01-08T08:03:26;96700.28;;;6.07;100.00
5284;BME280;15377;48.540;9.268;2023-01-08T08:05:51;96701.50;;;6.06;100.00
5284;BME280;15377;48.540;9.268;2023-01-08T08:08:17;96695.75;;;6.04;100.00
5284;BME280;15377;48.540;9.268;2023-01-08T08:10:44;96696.97;;;6.03;100.00
5284;BME280;15377;48.540;9.268;2023-01-08T08:13:10;96701.22;;;6.04;100.00
5284;BME280;15377;48.540;9.268;2023-01-08T08:15:36;96687.09;;;6.05;100.00
5284;BME280;15377;48.540;9.268;2023-01-08T08:18:02;96684.84;;;6.04;100.00
5284;BME280;15377;48.540;9.268;2023-01-08T08:20:28;96682.25;;;6.09;100.00
5284;BME280;15377;48.540;9.268;2023-01-08T08:23:01;96689.97;;;6.11;100.00
5284;BME280;15377;48.540;9.268;2023-01-08T08:25:27;96672.97;;;6.07;100.00
5284;BME280;15377;48.540;9.268;2023-01-08T08:27:55;96680.56;;;6.12;100.00
5284;BME280;15377;48.540;9.268;2023-01-08T08:30:20;96678.28;;;6.10;100.00
5284;BME280;15377;48.540;9.268;2023-01-08T08:32:46;96666.00;;;6.06;100.00
5284;BME280;15377;48.540;9.268;2023-01-08T08:35:11;96685.09;;;6.15;100.00
5284;BME280;15377;48.540;9.268;2023-01-08T08:37:36;96682.38;;;6.15;100.00
5284;BME280;15377;48.540;9.268;2023-01-08T08:40:02;96664.47;;;6.14;100.00
5284;BME280;15377;48.540;9.268;2023-01-08T08:42:27;96674.31;;;6.20;100.00
5284;BME280;15377;48.540;9.268;2023-01-08T08:44:53;96665.94;;;6.24;100.00
5284;BME280;15377;48.540;9.268;2023-01-08T08:47:18;96679.94;;;6.26;100.00
5284;BME280;15377;48.540;9.268;2023-01-08T08:49:43;96655.94;;;6.21;100.00
5284;BME280;15377;48.540;9.268;2023-01-08T08:52:09;96670.47;;;6.36;100.00
5284;BME280;15377;48.540;9.268;2023-01-08T08:54:34;96665.91;;;6.42;100.00
5284;BME280;15377;48.540;9.268;2023-01-08T08:57:01;96657.69;;;6.42;100.00
5284;BME280;15377;48.540;9.268;2023-01-08T08:59:29;96658.56;;;6.48;100.00
5284;BME280;15377;48.540;9.268;2023-01-08T09:01:54;96662.81;;;6.49;100.00
5284;BME280;15377;48.540;9.268;2023-01-08T09:04:19;96639.31;;;6.42;100.00
5284;BME280;15377;48.540;9.268;2023-01-08T09:06:45;96647.13;;;6.58;100.00
5284;BME280;15377;48.540;9.268;2023-01-08T09:09:10;96639.38;;;6.57;100.00
5284;BME280;15377;48.540;9.268;2023-01-08T09:11:35;96641.56;;;6.76;100.00
5284;BME280;15377;48.540;9.268;2023-01-08T09:14:01;96643.50;;;6.85;100.00
5284;BME280;15377;48.540;9.268;2023-01-08T09:16:26;96640.69;;;6.94;100.00
5284;BME280;15377;48.540;9.268;2023-01-08T09:18:52;96634.00;;;6.95;100.00
5284;BME280;15377;48.540;9.268;2023-01-08T09:21:17;96630.03;;;6.96;100.00
5284;BME280;15377;48.540;9.268;2023-01-08T09:23:42;96643.63;;;7.13;100.00
5284;BME280;15377;48.540;9.268;2023-01-08T09:26:08;96632.34;;;7.11;100.00
5284;BME280;15377;48.540;9.268;2023-01-08T09:28:33;96629.28;;;7.18;100.00
5284;BME280;15377;48.540;9.268;2023-01-08T09:31:00;96634.00;;;7.18;100.00
5284;BME280;15377;48.540;9.268;2023-01-08T09:33:27;96640.09;;;7.36;100.00
5284;BME280;15377;48.540;9.268;2023-01-08T09:35:52;96640.19;;;7.42;100.00
5284;BME280;15377;48.540;9.268;2023-01-08T09:38:17;96648.78;;;7.49;100.00
5284;BME280;15377;48.540;9.268;2023-01-08T09:40:54;96631.13;;;7.50;100.00
5284;BME280;15377;48.540;9.268;2023-01-08T09:43:22;96644.09;;;7.64;100.00
5284;BME280;15377;48.540;9.268;2023-01-08T09:45:55;96634.09;;;7.61;100.00
5284;BME280;15377;48.540;9.268;2023-01-08T09:48:25;96636.09;;;7.75;100.00
5284;BME280;15377;48.540;9.268;2023-01-08T09:50:52;96620.31;;;7.70;100.00
5284;BME280;15377;48.540;9.268;2023-01-08T09:53:18;96644.31;;;7.75;100.00
5284;BME280;15377;48.540;9.268;2023-01-08T09:55:45;96620.50;;;7.67;100.00
5284;BME280;15377;48.540;9.268;2023-01-08T09:58:34;96643.34;;;7.78;100.00
5284;BME280;15377;48.540;9.268;2023-01-08T10:01:01;96644.88;;;7.79;100.00
5284;BME280;15377;48.540;9.268;2023-01-08T10:03:38;96635.78;;;7.73;100.00
5284;BME280;15377;48.540;9.268;2023-01-08T10:06:11;96644.78;;;7.88;100.00
5284;BME280;15377;48.540;9.268;2023-01-08T10:08:38;96646.59;;;7.91;100.00
5284;BME280;15377;48.540;9.268;2023-01-08T10:11:04;96657.13;;;7.98;100.00
5284;BME280;15377;48.540;9.268;2023-01-08T10:13:32;96625.59;;;7.88;100.00
5284;BME280;15377;48.540;9.268;2023-01-08T10:15:59;96653.38;;;8.10;100.00
5284;BME280;15377;48.540;9.268;2023-01-08T10:18:25;96648.47;;;8.14;100.00
5284;BME280;15377;48.540;9.268;2023-01-08T10:20:52;96656.03;;;8.19;100.00
5284;BME280;15377;48.540;9.268;2023-01-08T10:23:19;96659.63;;;8.25;100.00
5284;BME280;15377;48.540;9.268;2023-01-08T10:28:29;96663.97;;;8.46;100.00
5284;BME280;15377;48.540;9.268;2023-01-08T10:31:05;96646.09;;;8.36;100.00
5284;BME280;15377;48.540;9.268;2023-01-08T10:33:41;96652.44;;;8.42;100.00
5284;BME280;15377;48.540;9.268;2023-01-08T10:36:09;96665.34;;;8.56;100.00
5284;BME280;15377;48.540;9.268;2023-01-08T10:38:40;96644.59;;;8.50;100.00
5284;BME280;15377;48.540;9.268;2023-01-08T10:41:10;96651.25;;;8.63;100.00
5284;BME280;15377;48.540;9.268;2023-01-08T10:46:31;96652.72;;;8.79;100.00
5284;BME280;15377;48.540;9.268;2023-01-08T10:49:02;96646.09;;;8.85;100.00
5284;BME280;15377;48.540;9.268;2023-01-08T10:51:29;96648.69;;;8.94;100.00
5284;BME280;15377;48.540;9.268;2023-01-08T10:54:11;96645.25;;;8.99;100.00
5284;BME280;15377;48.540;9.268;2023-01-08T10:56:43;96638.44;;;9.09;100.00
5284;BME280;15377;48.540;9.268;2023-01-08T10:59:19;96641.03;;;9.18;100.00
5284;BME280;15377;48.540;9.268;2023-01-08T11:01:46;96633.19;;;9.31;100.00
5284;BME280;15377;48.540;9.268;2023-01-08T11:04:21;96648.09;;;9.45;100.00
5284;BME280;15377;48.540;9.268;2023-01-08T11:06:48;96626.44;;;9.52;100.00
5284;BME280;15377;48.540;9.268;2023-01-08T11:09:25;96626.06;;;9.65;100.00
5284;BME280;15377;48.540;9.268;2023-01-08T11:11:51;96625.44;;;9.75;100.00
5284;BME280;15377;48.540;9.268;2023-01-08T11:14:21;96612.69;;;9.72;100.00
5284;BME280;15377;48.540;9.268;2023-01-08T11:16:48;96614.16;;;9.99;100.00
5284;BME280;15377;48.540;9.268;2023-01-08T11:19:29;96589.81;;;9.86;100.00
5284;BME280;15377;48.540;9.268;2023-01-08T11:22:01;96609.53;;;10.10;100.00
5284;BME280;15377;48.540;9.268;2023-01-08T11:24:34;96609.88;;;10.18;100.00
5284;BME280;15377;48.540;9.268;2023-01-08T11:32:48;96607.16;;;10.23;100.00
5284;BME280;15377;48.540;9.268;2023-01-08T11:37:55;96582.41;;;10.23;100.00
5284;BME280;15377;48.540;9.268;2023-01-08T11:40:48;96577.72;;;10.29;100.00
5284;BME280;15377;48.540;9.268;2023-01-08T11:43:35;96559.69;;;10.23;100.00
5284;BME280;15377;48.540;9.268;2023-01-08T11:52:22;96560.31;;;10.43;100.00
5284;BME280;15377;48.540;9.268;2023-01-08T12:03:13;96557.53;;;10.85;100.00
5284;BME280;15377;48.540;9.268;2023-01-08T12:19:36;96526.13;;;11.19;100.00
5284;BME280;15377;48.540;9.268;2023-01-08T12:25:03;96522.63;;;11.24;100.00
5284;BME280;15377;48.540;9.268;2023-01-08T12:33:00;96516.59;;;11.20;100.00
5284;BME280;15377;48.540;9.268;2023-01-08T12:35:33;96521.16;;;11.34;100.00
5284;BME280;15377;48.540;9.268;2023-01-08T12:38:10;96516.91;;;11.44;100.00
5284;BME280;15377;48.540;9.268;2023-01-08T12:41:00;96527.69;;;11.42;100.00
5284;BME280;15377;48.540;9.268;2023-01-08T12:43:31;96527.19;;;11.38;100.00
5284;BME280;15377;48.540;9.268;2023-01-08T12:45:59;96523.13;;;11.28;100.00
5284;BME280;15377;48.540;9.268;2023-01-08T12:48:32;96482.75;;;10.97;100.00
5284;BME280;15377;48.540;9.268;2023-01-08T12:59:27;96513.19;;;10.77;100.00
5284;BME280;15377;48.540;9.268;2023-01-08T13:04:57;96498.63;;;10.61;100.00
5284;BME280;15377;48.540;9.268;2023-01-08T13:07:28;96505.88;;;10.58;100.00
5284;BME280;15377;48.540;9.268;2023-01-08T13:10:08;96506.63;;;10.59;100.00
5284;BME280;15377;48.540;9.268;2023-01-08T13:12:49;96488.06;;;10.48;100.00
5284;BME280;15377;48.540;9.268;2023-01-08T13:15:22;96498.84;;;10.57;100.00
5284;BME280;15377;48.540;9.268;2023-01-08T13:17:51;96493.09;;;10.55;100.00
5284;BME280;15377;48.540;9.268;2023-01-08T13:20:23;96488.81;;;10.43;100.00
5284;BME280;15377;48.540;9.268;2023-01-08T13:23:02;96486.53;;;10.42;100.00
5284;BME280;15377;48.540;9.268;2023-01-08T13:25:36;96483.75;;;10.36;100.00
5284;BME280;15377;48.540;9.268;2023-01-08T13:28:42;96450.66;;;10.14;100.00
5284;BME280;15377;48.540;9.268;2023-01-08T13:33:46;96450.41;;;10.18;100.00
5284;BME280;15377;48.540;9.268;2023-01-08T13:36:20;96457.75;;;10.37;100.00
5284;BME280;15377;48.540;9.268;2023-01-08T13:39:02;96451.28;;;10.40;100.00
5284;BME280;15377;48.540;9.268;2023-01-08T13:41:32;96462.34;;;10.51;100.00
5284;BME280;15377;48.540;9.268;2023-01-08T13:44:00;96448.84;;;10.53;100.00
5284;BME280;15377;48.540;9.268;2023-01-08T13:46:27;96452.09;;;10.57;100.00
5284;BME280;15377;48.540;9.268;2023-01-08T13:48:59;96443.38;;;10.64;100.00
5284;BME280;15377;48.540;9.268;2023-01-08T13:51:37;96445.91;;;10.73;100.00
5284;BME280;15377;48.540;9.268;2023-01-08T13:54:14;96443.19;;;10.79;100.00
5284;BME280;15377;48.540;9.268;2023-01-08T13:56:43;96440.22;;;10.93;100.00
5284;BME280;15377;48.540;9.268;2023-01-08T13:59:42;96429.97;;;11.10;100.00
5284;BME280;15377;48.540;9.268;2023-01-08T14:02:22;96428.75;;;11.22;100.00
5284;BME280;15377;48.540;9.268;2023-01-08T14:04:48;96430.00;;;11.43;100.00
5284;BME280;15377;48.540;9.268;2023-01-08T14:07:14;96425.03;;;11.58;100.00
5284;BME280;15377;48.540;9.268;2023-01-08T14:09:40;96417.75;;;11.66;100.00
5284;BME280;15377;48.540;9.268;2023-01-08T14:12:11;96424.28;;;11.68;100.00
5284;BME280;15377;48.540;9.268;2023-01-08T14:14:38;96426.28;;;11.51;100.00
5284;BME280;15377;48.540;9.268;2023-01-08T14:17:13;96401.72;;;11.26;100.00
5284;BME280;15377;48.540;9.268;2023-01-08T14:19:40;96399.69;;;11.10;100.00
5284;BME280;15377;48.540;9.268;2023-01-08T14:22:13;96406.69;;;11.00;100.00
5284;BME280;15377;48.540;9.268;2023-01-08T14:24:42;96423.72;;;10.98;100.00
5284;BME280;15377;48.540;9.268;2023-01-08T14:27:19;96419.94;;;10.85;100.00
5284;BME280;15377;48.540;9.268;2023-01-08T14:29:44;96411.66;;;10.74;100.00
5284;BME280;15377;48.540;9.268;2023-01-08T14:32:15;96405.84;;;10.61;100.00
5284;BME280;15377;48.540;9.268;2023-01-08T14:34:41;96399.78;;;10.46;100.00
5284;BME280;15377;48.540;9.268;2023-01-08T14:37:12;96393.72;;;10.26;100.00
5284;BME280;15377;48.540;9.268;2023-01-08T14:39:37;96402.19;;;10.22;100.00